< < Back
Terminal Aerodrome Forecast


Current Version              Previous Versions:   1  2  3  4  5  6  7  8  9  

Terminal Aerodrome Forecast

302
FTUS42 KILM 301730
TAFILM
TAF
KILM 301730Z 3018/3118 23012G22KT P6SM SCT025 BKN050 OVC070
      TEMPO 3018/3021 BKN015 BKN025
     FM302200 29004KT P6SM FEW020 BKN050
     FM310600 35003KT P6SM SKC
     FM311300 09008KT P6SM SKC=

Latest METAR

437
SAUS70 KWBC 311500 RRG
MTRILM
METAR KILM 311453Z 00000KT 10SM CLR 19/M01 A3005 RMK AO2 SLP177
T01891006 50003


USA.gov is the U.S. government's official web portal to all federal, state and local government web resources and services.